createdAt,value
2019-04-11T00:02:18.571Z,82.16
2019-04-11T00:04:48.610Z,81.77
2019-04-11T00:07:18.635Z,81.61
2019-04-11T00:09:49.293Z,81.66
2019-04-11T00:12:19.638Z,82.02
2019-04-11T00:14:49.681Z,81.68
2019-04-11T00:17:19.817Z,80.88
2019-04-11T00:19:49.851Z,80.84
2019-04-11T00:22:21.482Z,80.90
2019-04-11T00:24:51.567Z,81.04
2019-04-11T00:27:21.718Z,81.28
2019-04-11T00:29:51.631Z,81.65
2019-04-11T00:32:21.874Z,81.60
2019-04-11T00:34:53.314Z,81.66
2019-04-11T00:37:23.484Z,81.66
2019-04-11T00:39:54.134Z,81.88
2019-04-11T00:42:23.379Z,82.05
2019-04-11T00:44:53.283Z,81.71
2019-04-11T00:47:23.331Z,81.75
2019-04-11T00:49:53.358Z,81.52
2019-04-11T00:52:25.375Z,81.70
2019-04-11T00:54:55.565Z,81.82
2019-04-11T00:57:25.727Z,82.71
2019-04-11T00:59:56.505Z,82.93
2019-04-11T01:02:26.717Z,83.86
2019-04-11T01:04:57.106Z,84.94
2019-04-11T01:07:29.105Z,86.40
2019-04-11T01:09:59.184Z,87.88
2019-04-11T01:12:29.222Z,88.56
2019-04-11T01:14:59.445Z,89.32
2019-04-11T01:17:29.607Z,89.39
2019-04-11T01:19:59.735Z,89.57
2019-04-11T01:22:29.908Z,89.72
2019-04-11T01:24:59.942Z,90.74
2019-04-11T01:27:30.665Z,90.97
2019-04-11T01:30:00.606Z,91.25
2019-04-11T01:32:30.646Z,91.40
2019-04-11T01:35:01.297Z,91.76
2019-04-11T01:37:31.454Z,92.43
2019-04-11T01:40:02.428Z,93.26
2019-04-11T01:42:33.471Z,93.95
2019-04-11T01:45:03.886Z,94.71
2019-04-11T01:47:37.386Z,95.24
2019-04-11T01:50:08.428Z,95.27
2019-04-11T01:52:38.613Z,94.80
2019-04-11T01:55:08.648Z,94.32
2019-04-11T01:57:38.687Z,94.27
2019-04-11T02:00:12.223Z,94.53
2019-04-11T02:02:44.406Z,95.02
2019-04-11T02:05:16.727Z,95.54
2019-04-11T02:07:46.982Z,95.73
2019-04-11T02:10:17.039Z,95.19
2019-04-11T02:12:47.688Z,92.81
2019-04-11T02:15:17.735Z,92.60
2019-04-11T02:17:48.779Z,92.61
2019-04-11T02:20:18.935Z,92.78
2019-04-11T02:22:50.815Z,93.02
2019-04-11T02:25:28.731Z,92.07
2019-04-11T02:28:00.610Z,92.05
2019-04-11T02:30:31.352Z,92.69
2019-04-11T02:33:01.474Z,92.33
2019-04-11T02:35:31.727Z,92.62
2019-04-11T02:38:02.961Z,93.06
2019-04-11T02:40:33.247Z,93.48
2019-04-11T02:43:05.010Z,93.06
2019-04-11T02:45:45.396Z,92.18
2019-04-11T02:48:09.331Z,92.77
2019-04-11T02:50:40.655Z,92.11
2019-04-11T02:53:12.426Z,91.96
2019-04-11T02:55:43.806Z,91.95
2019-04-11T02:58:15.326Z,92.25
2019-04-11T03:00:45.656Z,92.66
2019-04-11T03:03:15.402Z,92.36
2019-04-11T03:05:47.056Z,91.98
2019-04-11T03:08:19.795Z,91.86
2019-04-11T03:10:49.335Z,92.22
2019-04-11T03:13:21.105Z,92.06
2019-04-11T03:16:07.499Z,91.55
2019-04-11T03:18:40.711Z,91.88
2019-04-11T03:21:00.154Z,91.69
2019-04-11T03:23:27.849Z,91.37
2019-04-11T03:25:58.321Z,91.32
2019-04-11T03:28:31.386Z,91.36
2019-04-11T03:31:32.663Z,90.93
2019-04-11T03:37:00.689Z,89.55
2019-04-11T03:38:55.477Z,89.24
2019-04-11T03:41:23.514Z,89.82
2019-04-11T03:43:51.086Z,89.49
2019-04-11T03:46:30.851Z,88.99
2019-04-11T03:48:57.755Z,89.10
2019-04-11T03:51:17.973Z,89.06
2019-04-11T03:53:47.272Z,89.14
2019-04-11T03:56:19.926Z,89.25
2019-04-11T03:58:50.323Z,89.91
2019-04-11T04:01:22.640Z,89.76
2019-04-11T04:03:53.979Z,89.46
2019-04-11T04:06:25.525Z,89.59
2019-04-11T04:08:55.911Z,88.85
2019-04-11T04:11:27.510Z,89.72
2019-04-11T04:14:17.150Z,89.79
2019-04-11T04:16:54.860Z,88.83
2019-04-11T04:19:35.360Z,88.38
2019-04-11T04:22:14.187Z,88.57
2019-04-11T04:24:47.495Z,88.61
2019-04-11T04:27:19.848Z,88.21
2019-04-11T04:29:54.903Z,87.94
2019-04-11T04:32:23.038Z,88.60
2019-04-11T04:34:53.350Z,88.82
2019-04-11T04:37:24.840Z,89.13
2019-04-11T04:40:13.531Z,89.07
2019-04-11T04:42:35.911Z,88.17
2019-04-11T04:45:02.513Z,88.50
2019-04-11T04:47:42.668Z,88.97
2019-04-11T04:50:08.595Z,87.40
2019-04-11T04:52:38.924Z,86.47
2019-04-11T04:55:10.579Z,86.53
2019-04-11T04:57:42.888Z,86.88
2019-04-11T05:00:14.918Z,87.48
2019-04-11T05:02:47.903Z,86.04
2019-04-11T05:05:19.619Z,85.63
2019-04-11T05:07:49.937Z,85.05
2019-04-11T05:10:20.104Z,84.36
2019-04-11T05:12:51.428Z,83.51
2019-04-11T05:15:21.534Z,83.72
2019-04-11T05:17:51.473Z,84.10
2019-04-11T05:20:21.885Z,83.56
2019-04-11T05:22:51.359Z,83.20
2019-04-11T05:25:22.255Z,82.35
2019-04-11T05:27:52.438Z,80.57
2019-04-11T05:30:23.123Z,79.65
2019-04-11T05:32:53.496Z,78.90
2019-04-11T05:35:23.457Z,79.28
2019-04-11T05:37:53.614Z,79.18
2019-04-11T05:40:24.016Z,79.21
2019-04-11T05:42:54.636Z,79.43
2019-04-11T05:45:26.466Z,78.23
2019-04-11T05:47:58.456Z,79.52
2019-04-11T05:50:32.046Z,79.36
2019-04-11T05:53:03.702Z,80.21
2019-04-11T05:55:36.361Z,80.99
2019-04-11T05:58:11.405Z,81.07
2019-04-11T06:00:46.744Z,80.51
2019-04-11T06:03:17.684Z,79.63
2019-04-11T06:05:49.915Z,78.80
2019-04-11T06:08:26.819Z,77.30
2019-04-11T06:11:14.574Z,76.06
2019-04-11T06:13:56.811Z,74.16
2019-04-11T06:16:38.911Z,73.34
2019-04-11T06:19:04.056Z,72.81
2019-04-11T06:21:36.003Z,71.82
2019-04-11T06:24:14.173Z,70.70
2019-04-11T06:26:46.966Z,69.33
2019-04-11T06:29:26.088Z,65.69
2019-04-11T06:32:11.768Z,65.41
2019-04-11T06:34:43.827Z,64.98
2019-04-11T06:37:19.295Z,68.79
2019-04-11T06:39:58.282Z,69.73
2019-04-11T06:42:30.267Z,70.60
2019-04-11T06:45:18.282Z,71.73
2019-04-11T06:48:02.068Z,71.73
2019-04-11T06:50:37.527Z,72.16
2019-04-11T06:53:08.877Z,71.92
2019-04-11T06:55:57.228Z,70.84
2019-04-11T06:58:29.758Z,70.01
2019-04-11T07:01:01.438Z,69.49
2019-04-11T07:03:34.095Z,70.20
2019-04-11T07:06:05.563Z,70.01
2019-04-11T07:08:40.603Z,65.53
2019-04-11T07:11:12.229Z,63.00
2019-04-11T07:13:43.792Z,63.40
2019-04-11T07:16:15.254Z,63.67
2019-04-11T07:18:47.015Z,64.21
2019-04-11T07:21:17.128Z,65.96
2019-04-11T07:24:05.428Z,65.58
2019-04-11T07:26:37.377Z,65.29
2019-04-11T07:29:24.149Z,66.24
2019-04-11T07:31:57.024Z,65.68
2019-04-11T07:34:45.747Z,63.04
2019-04-11T07:37:32.677Z,62.31
2019-04-11T07:40:13.454Z,61.21
2019-04-11T07:42:44.229Z,59.39
2019-04-11T07:45:21.619Z,61.36
2019-04-11T07:47:53.174Z,62.02
2019-04-11T07:50:24.914Z,62.33
2019-04-11T07:53:06.747Z,61.50
2019-04-11T07:55:38.672Z,62.39
2019-04-11T07:58:21.938Z,62.56
2019-04-11T08:01:10.375Z,62.72
2019-04-11T08:03:54.250Z,61.15
2019-04-11T08:06:42.898Z,59.73
2019-04-11T08:09:15.314Z,58.09
2019-04-11T08:11:50.031Z,57.08
2019-04-11T08:14:21.531Z,56.17
2019-04-11T08:17:03.670Z,55.91
2019-04-11T08:19:44.373Z,56.63
2019-04-11T08:22:16.926Z,56.69
2019-04-11T08:25:00.902Z,56.38
2019-04-11T08:27:33.514Z,52.77
2019-04-11T08:30:06.392Z,51.40
2019-04-11T08:32:56.616Z,53.84
2019-04-11T08:35:34.920Z,53.23
2019-04-11T08:38:12.419Z,49.30
2019-04-11T08:40:53.359Z,47.05
2019-04-11T08:43:28.915Z,46.85
2019-04-11T08:46:00.841Z,49.66
2019-04-11T08:48:33.035Z,46.26
2019-04-11T08:51:09.791Z,44.19
2019-04-11T08:53:44.862Z,42.28
2019-04-11T08:56:16.768Z,43.58
2019-04-11T08:59:33.636Z,41.44
2019-04-11T09:02:04.670Z,41.86
2019-04-11T09:05:03.258Z,39.78
2019-04-11T09:07:25.418Z,39.32
2019-04-11T09:10:07.425Z,39.18
2019-04-11T09:12:39.400Z,38.06
2019-04-11T09:15:26.662Z,36.97
2019-04-11T09:18:04.204Z,35.08
2019-04-11T09:20:34.071Z,35.93
2019-04-11T09:23:04.089Z,37.16
2019-04-11T09:25:45.524Z,41.10
2019-04-11T09:28:18.181Z,36.62
2019-04-11T09:30:56.981Z,33.16
2019-04-11T09:33:47.007Z,32.00
2019-04-11T09:36:33.901Z,36.20
2019-04-11T09:39:12.931Z,34.17
2019-04-11T09:42:00.976Z,32.79
2019-04-11T09:44:32.919Z,29.06
2019-04-11T09:47:13.718Z,30.39
2019-04-11T09:49:48.451Z,32.31
2019-04-11T09:52:26.985Z,34.73
2019-04-11T09:55:01.337Z,36.35
2019-04-11T09:57:34.656Z,35.30
2019-04-11T10:00:08.468Z,34.19
2019-04-11T10:02:58.862Z,23.88
2019-04-11T10:05:34.103Z,23.88
2019-04-11T10:08:12.765Z,22.39
2019-04-11T10:10:47.386Z,23.33
2019-04-11T10:13:28.919Z,26.16
2019-04-11T10:16:17.975Z,26.52
2019-04-11T10:18:53.600Z,25.44
2019-04-11T10:21:25.951Z,25.32
2019-04-11T10:24:16.631Z,26.48
2019-04-11T10:27:06.750Z,26.48
2019-04-11T10:29:41.811Z,28.51
2019-04-11T10:32:13.589Z,29.37
2019-04-11T10:34:52.210Z,22.45
2019-04-11T10:37:23.475Z,23.82
2019-04-11T10:39:54.512Z,22.46
2019-04-11T10:42:26.315Z,17.93
2019-04-11T10:45:14.383Z,16.67
2019-04-11T10:47:47.047Z,18.78
2019-04-11T10:50:21.990Z,17.92
2019-04-11T10:53:00.521Z,18.05
2019-04-11T10:55:32.294Z,18.54
2019-04-11T10:58:06.833Z,17.11
2019-04-11T11:00:41.476Z,19.81
2019-04-11T11:03:15.886Z,26.23
2019-04-11T11:05:47.471Z,18.60
2019-04-11T11:08:29.118Z,18.64
2019-04-11T11:11:00.743Z,17.86
2019-04-11T11:13:48.483Z,17.86
2019-04-11T11:16:20.270Z,17.33
2019-04-11T11:19:31.201Z,15.95
2019-04-11T11:21:39.914Z,17.32
2019-04-11T11:24:28.292Z,16.21
2019-04-11T11:27:02.546Z,21.66
2019-04-11T11:29:32.004Z,19.25
2019-04-11T11:32:05.022Z,17.11
2019-04-11T11:34:40.988Z,17.58
2019-04-11T11:37:29.021Z,16.65
2019-04-11T11:40:14.572Z,15.71
2019-04-11T11:42:47.451Z,21.05
2019-04-11T11:45:19.551Z,20.06
2019-04-11T11:47:55.307Z,17.69
2019-04-11T11:50:26.743Z,18.95
2019-04-11T11:53:04.816Z,18.82
2019-04-11T11:55:41.265Z,18.20
2019-04-11T11:58:29.939Z,19.20
2019-04-11T12:01:05.826Z,15.90
2019-04-11T12:03:46.782Z,16.46
2019-04-11T12:06:22.284Z,16.34
2019-04-11T12:08:51.571Z,15.49
2019-04-11T12:11:22.700Z,15.73
2019-04-11T12:14:00.399Z,15.08
2019-04-11T12:16:33.053Z,13.63
2019-04-11T12:19:22.167Z,14.37
2019-04-11T12:21:55.782Z,14.07
2019-04-11T12:24:29.161Z,21.52
2019-04-11T12:27:18.638Z,23.03
2019-04-11T12:30:08.682Z,23.67
2019-04-11T12:32:46.639Z,32.86
2019-04-11T12:35:36.038Z,37.96
2019-04-11T12:38:24.700Z,39.11
2019-04-11T12:41:14.993Z,20.89
2019-04-11T12:44:04.840Z,17.38
2019-04-11T12:46:52.786Z,17.79
2019-04-11T12:49:27.112Z,15.07
2019-04-11T12:52:15.117Z,15.91
2019-04-11T12:54:46.719Z,17.64
2019-04-11T12:57:34.867Z,16.82
2019-04-11T13:00:20.748Z,24.91
2019-04-11T13:03:01.319Z,34.86
2019-04-11T13:05:33.599Z,37.66
2019-04-11T13:08:21.753Z,28.32
2019-04-11T13:10:51.793Z,24.26
2019-04-11T13:13:29.498Z,18.61
2019-04-11T13:16:12.471Z,18.77
2019-04-11T13:18:46.546Z,22.01
2019-04-11T13:21:27.217Z,21.38
2019-04-11T13:23:58.789Z,20.74
2019-04-11T13:26:36.589Z,21.05
2019-04-11T13:29:29.251Z,27.18
2019-04-11T13:32:07.156Z,23.02
2019-04-11T13:34:38.832Z,24.21
2019-04-11T13:37:16.443Z,28.13
2019-04-11T13:39:48.002Z,34.94
2019-04-11T13:42:22.636Z,34.70
2019-04-11T13:44:52.674Z,30.25
2019-04-11T13:47:40.711Z,27.78
2019-04-11T13:50:16.759Z,27.15
2019-04-11T13:53:00.424Z,26.68
2019-04-11T13:55:30.770Z,24.68
2019-04-11T13:58:02.339Z,24.35
2019-04-11T14:00:39.741Z,25.69
2019-04-11T14:03:26.639Z,28.09
2019-04-11T14:05:58.255Z,29.53
2019-04-11T14:08:41.871Z,31.05
2019-04-11T14:11:19.677Z,30.03
2019-04-11T14:13:49.455Z,28.15
2019-04-11T14:16:23.641Z,30.44
2019-04-11T14:19:12.416Z,31.50
2019-04-11T14:21:44.265Z,31.50
2019-04-11T14:24:24.845Z,31.62
2019-04-11T14:27:02.539Z,32.23
2019-04-11T14:29:34.126Z,31.09
2019-04-11T14:32:14.652Z,30.66
2019-04-11T14:35:04.769Z,31.22
2019-04-11T14:37:38.417Z,30.03
2019-04-11T14:40:26.004Z,30.08
2019-04-11T14:43:16.157Z,30.10
2019-04-11T14:45:53.090Z,33.31
2019-04-11T14:48:42.655Z,33.31
2019-04-11T14:51:26.200Z,33.02
2019-04-11T14:54:11.794Z,33.10
2019-04-11T14:56:47.978Z,33.76
2019-04-11T14:59:35.907Z,31.80
2019-04-11T15:02:07.574Z,31.48
2019-04-11T15:04:39.121Z,32.04
2019-04-11T15:07:10.037Z,32.23
2019-04-11T15:09:46.484Z,31.60
2019-04-11T15:12:20.593Z,32.35
2019-04-11T15:14:52.164Z,31.78
2019-04-11T15:17:33.047Z,32.24
2019-04-11T15:20:07.490Z,33.76
2019-04-11T15:22:45.087Z,34.83
2019-04-11T15:25:19.521Z,35.31
2019-04-11T15:28:03.173Z,37.27
2019-04-11T15:30:53.043Z,39.14
2019-04-11T15:33:40.873Z,40.68
2019-04-11T15:36:12.449Z,43.00
2019-04-11T15:39:00.185Z,43.86
2019-04-11T15:41:31.846Z,44.61
2019-04-11T15:44:21.618Z,44.46
2019-04-11T15:46:51.550Z,44.95
2019-04-11T15:49:30.213Z,45.69
2019-04-11T15:51:56.440Z,46.26
2019-04-11T15:54:44.487Z,46.90
2019-04-11T15:57:16.148Z,47.52
2019-04-11T15:59:47.713Z,47.90
2019-04-11T16:02:37.797Z,48.27
2019-04-11T16:05:31.465Z,49.04
2019-04-11T16:08:19.419Z,49.63
2019-04-11T16:10:54.174Z,49.95
2019-04-11T16:13:25.843Z,50.35
2019-04-11T16:16:05.220Z,50.92
2019-04-11T16:18:47.128Z,51.44
2019-04-11T16:21:24.263Z,51.34
2019-04-11T16:23:56.969Z,52.37
2019-04-11T16:26:43.865Z,53.41
2019-04-11T16:29:18.203Z,53.83
2019-04-11T16:31:48.125Z,54.67
2019-04-11T16:34:31.669Z,56.21
2019-04-11T16:37:01.601Z,57.27
2019-04-11T16:39:54.854Z,58.64
2019-04-11T16:42:24.818Z,58.78
2019-04-11T16:45:12.418Z,59.31
2019-04-11T16:47:43.956Z,59.87
2019-04-11T16:50:14.109Z,60.12
2019-04-11T16:52:44.072Z,60.55
2019-04-11T16:55:14.218Z,61.63
2019-04-11T16:57:45.493Z,61.64
2019-04-11T17:00:20.259Z,62.68
2019-04-11T17:02:47.387Z,62.46
2019-04-11T17:05:17.501Z,61.99
2019-04-11T17:08:01.063Z,63.00
2019-04-11T17:10:49.541Z,64.22
2019-04-11T17:13:19.548Z,65.08
2019-04-11T17:15:49.591Z,66.06
2019-04-11T17:18:19.637Z,66.74
2019-04-11T17:20:49.790Z,67.17
2019-04-11T17:23:19.896Z,67.31
2019-04-11T17:25:53.097Z,67.09
2019-04-11T17:28:23.121Z,66.10
2019-04-11T17:30:55.701Z,65.67
2019-04-11T17:33:27.754Z,65.51
2019-04-11T17:35:56.831Z,65.39
2019-04-11T17:38:26.988Z,65.63
2019-04-11T17:40:56.974Z,66.09
2019-04-11T17:43:27.255Z,66.06
2019-04-11T17:45:57.734Z,66.19
2019-04-11T17:48:27.076Z,66.78
2019-04-11T17:50:57.184Z,67.85
2019-04-11T17:53:27.206Z,68.92
2019-04-11T17:55:57.371Z,70.33
2019-04-11T17:58:27.907Z,70.33
2019-04-11T18:01:00.539Z,71.29
2019-04-11T18:03:30.926Z,71.73
2019-04-11T18:06:01.242Z,71.11
2019-04-11T18:08:32.226Z,71.09
2019-04-11T18:11:03.697Z,71.36
2019-04-11T18:13:39.566Z,71.00
2019-04-11T18:16:09.903Z,70.62
2019-04-11T18:18:40.146Z,70.68
2019-04-11T18:21:10.291Z,70.19
2019-04-11T18:23:42.498Z,69.54
2019-04-11T18:26:12.446Z,70.08
2019-04-11T18:28:43.968Z,70.07
2019-04-11T18:31:13.915Z,69.49
2019-04-11T18:33:43.945Z,69.14
2019-04-11T18:36:13.926Z,68.05
2019-04-11T18:38:44.586Z,67.88
2019-04-11T18:41:14.990Z,67.26
2019-04-11T18:43:47.106Z,67.08
2019-04-11T18:46:17.194Z,67.32
2019-04-11T18:48:47.445Z,66.85
2019-04-11T18:51:17.505Z,66.70
2019-04-11T18:53:47.512Z,67.00
2019-04-11T18:56:17.553Z,66.61
2019-04-11T18:58:47.689Z,66.74
2019-04-11T19:01:19.686Z,66.72
2019-04-11T19:03:49.724Z,66.77
2019-04-11T19:06:27.764Z,68.66
2019-04-11T19:08:51.544Z,69.03
2019-04-11T19:11:21.655Z,69.41
2019-04-11T19:13:51.709Z,69.86
2019-04-11T19:16:21.742Z,69.75
2019-04-11T19:18:51.773Z,68.29
2019-04-11T19:21:22.234Z,68.27
2019-04-11T19:23:52.252Z,68.56
2019-04-11T19:26:22.925Z,69.88
2019-04-11T19:28:55.206Z,70.67
2019-04-11T19:31:28.443Z,72.58
2019-04-11T19:34:04.314Z,73.10
2019-04-11T19:36:32.354Z,74.47
2019-04-11T19:39:02.300Z,75.47
2019-04-11T19:41:34.067Z,75.55
2019-04-11T19:44:04.824Z,75.78
2019-04-11T19:46:35.481Z,75.21
2019-04-11T19:49:04.834Z,75.18
2019-04-11T19:51:34.728Z,75.33
2019-04-11T19:54:04.773Z,75.88
2019-04-11T19:56:42.370Z,75.82
2019-04-11T19:59:12.408Z,76.58
2019-04-11T20:01:42.443Z,75.96
2019-04-11T20:04:12.479Z,74.94
2019-04-11T20:06:43.197Z,74.87
2019-04-11T20:09:13.379Z,75.37
2019-04-11T20:11:44.870Z,76.23
2019-04-11T20:14:15.088Z,77.24
2019-04-11T20:16:48.883Z,77.58
2019-04-11T20:19:18.038Z,78.37
2019-04-11T20:21:48.018Z,78.24
2019-04-11T20:24:18.313Z,79.45
2019-04-11T20:26:50.293Z,78.75
2019-04-11T20:29:21.435Z,78.28
2019-04-11T20:31:51.585Z,78.72
2019-04-11T20:34:27.633Z,78.99
2019-04-11T20:36:54.832Z,78.70
2019-04-11T20:39:24.875Z,78.32
2019-04-11T20:41:56.333Z,78.02
2019-04-11T20:44:28.096Z,78.49
2019-04-11T20:47:00.488Z,79.41
2019-04-11T20:49:30.020Z,79.48
2019-04-11T20:52:00.001Z,79.69
2019-04-11T20:54:30.511Z,80.53
2019-04-11T20:57:00.439Z,79.48
2019-04-11T20:59:34.884Z,79.18
2019-04-11T21:02:02.063Z,78.31
2019-04-11T21:04:32.043Z,77.51
2019-04-11T21:07:02.659Z,76.39
2019-04-11T21:09:33.219Z,76.22
2019-04-11T21:12:04.971Z,75.93
2019-04-11T21:14:35.008Z,75.93
2019-04-11T21:17:05.038Z,77.05
2019-04-11T21:19:35.071Z,78.05
2019-04-11T21:22:05.003Z,78.87
2019-04-11T21:24:35.043Z,79.45
2019-04-11T21:27:05.294Z,79.69
2019-04-11T21:29:35.325Z,79.88
2019-04-11T21:32:05.975Z,79.57
2019-04-11T21:34:35.218Z,79.79
2019-04-11T21:37:05.330Z,79.93
2019-04-11T21:39:35.270Z,80.38
2019-04-11T21:42:06.127Z,78.94
2019-04-11T21:44:36.911Z,75.33
2019-04-11T21:47:07.358Z,73.41
2019-04-11T21:49:37.969Z,73.55
2019-04-11T21:52:12.048Z,73.05
2019-04-11T21:54:39.786Z,74.66
2019-04-11T21:57:09.833Z,75.69
2019-04-11T21:59:40.063Z,75.53
2019-04-11T22:02:12.403Z,75.85
2019-04-11T22:04:43.493Z,74.47
2019-04-11T22:07:14.582Z,74.77
2019-04-11T22:09:44.607Z,74.67
2019-04-11T22:12:14.649Z,74.09
2019-04-11T22:14:44.687Z,73.22
2019-04-11T22:17:15.836Z,73.45
2019-04-11T22:19:46.562Z,74.43
2019-04-11T22:22:16.634Z,74.20
2019-04-11T22:24:46.596Z,73.63
2019-04-11T22:27:16.609Z,72.94
2019-04-11T22:29:46.526Z,72.97
2019-04-11T22:32:16.685Z,73.80
2019-04-11T22:34:47.330Z,75.35
2019-04-11T22:37:16.572Z,76.69
2019-04-11T22:39:46.492Z,78.03
2019-04-11T22:42:16.654Z,77.29
2019-04-11T22:44:48.190Z,77.18
2019-04-11T22:47:18.089Z,76.75
2019-04-11T22:49:48.062Z,76.46
2019-04-11T22:52:19.225Z,76.40
2019-04-11T22:54:49.257Z,77.05
2019-04-11T22:57:19.312Z,78.08
2019-04-11T22:59:49.330Z,77.94
2019-04-11T23:02:26.846Z,77.11
2019-04-11T23:04:56.768Z,76.90
2019-04-11T23:07:26.697Z,77.70
2019-04-11T23:09:56.743Z,76.46
2019-04-11T23:12:26.776Z,75.71
2019-04-11T23:14:57.743Z,75.65
2019-04-11T23:17:27.669Z,74.58
2019-04-11T23:19:57.602Z,74.25
2019-04-11T23:22:27.645Z,74.29
2019-04-11T23:24:57.468Z,74.13
2019-04-11T23:27:27.427Z,74.62
2019-04-11T23:29:57.361Z,75.29
2019-04-11T23:32:27.375Z,74.94
2019-04-11T23:34:57.313Z,74.93
2019-04-11T23:37:27.258Z,74.87
2019-04-11T23:39:57.236Z,75.03
2019-04-11T23:42:28.342Z,75.54
2019-04-11T23:44:58.385Z,75.85
2019-04-11T23:47:28.321Z,76.54
2019-04-11T23:49:58.355Z,76.90
2019-04-11T23:52:28.409Z,76.51
2019-04-11T23:55:00.570Z,77.10
2019-04-11T23:57:31.278Z,77.82
